logo
Search for airport 
image banner adimage banner adimage banner ad
image banner ad

VT55 - Brandon

Located in Randolph, United States

ICAO - VT55, IATA -

Data provided by Airmate  

General information

Coordinates: N43°54'4" W72°34'58"
Elevation is 710 feet MSL.
Magnetic variation is -16° East
View others Airports in Vermont

Operational data

Special qualification required
Current time UTC:
Current local time:
Weather at : KMPV - Edward F Knapp State ( 34 km )
TAF: KMPV 172328Z 1800/1824 15007KT P6SM OVC110 FM181700 14006KT P6SM VCSH BKN035 OVC060
View NOTAMs / SUP AIP / TFR affecting this airport [VIEW]
Communications frequencies: [VIEW]

Runways:

RWY identifierQFULength (ft)Width (ft)SurfaceLDA (ft)
17130025GRASS
35130025GRASS

Airport contact information

Address: Randolph United States

Satellite view of VT55